Terminal Aerodrome Forecast
Issued by NWS Shreveport, LA

Current Version | Previous Version | Text Only | Print | Product List | Glossary On
Versions: 1 2 3 4 5 6 7 8 9 10 11 12 13 14 15 16 17 18 19 20 21 22 23 24 25
000
FTUS44 KSHV 210547
TAFSHV
TAF
KSHV 210547Z 2106/2206 18010KT P6SM BKN150 OVC250
     FM210800 20009KT 5SM SHRA VCTS OVC015CB
     FM211000 02010KT 3SM TSRA BKN007 OVC015CB
     FM220100 04008KT 3SM TSRA OVC007CB=

USA.gov is the U.S. government's official web portal to all federal, state and local government web resources and services.